createdAt,value
2019-05-21T00:00:43.486Z,36.40
2019-05-21T00:01:43.484Z,37.40
2019-05-21T00:02:43.473Z,38.80
2019-05-21T00:03:43.467Z,38.40
2019-05-21T00:04:43.468Z,39.60
2019-05-21T00:05:43.463Z,39.30
2019-05-21T00:06:43.460Z,43.60
2019-05-21T00:07:43.454Z,47.80
2019-05-21T00:08:43.470Z,45.30
2019-05-21T00:09:43.441Z,42.60
2019-05-21T00:10:43.433Z,47.40
2019-05-21T00:11:43.424Z,46.40
2019-05-21T00:12:43.425Z,44.30
2019-05-21T00:13:43.423Z,43.00
2019-05-21T00:14:43.408Z,39.70
2019-05-21T00:15:43.404Z,43.30
2019-05-21T00:16:43.403Z,46.80
2019-05-21T00:17:43.399Z,42.80
2019-05-21T00:18:43.395Z,43.20
2019-05-21T00:19:43.388Z,46.30
2019-05-21T00:20:43.385Z,42.90
2019-05-21T00:21:43.374Z,42.00
2019-05-21T00:22:43.370Z,41.90
2019-05-21T00:23:43.363Z,45.00
2019-05-21T00:24:43.418Z,48.30
2019-05-21T00:25:43.356Z,44.00
2019-05-21T00:26:43.347Z,48.00
2019-05-21T00:27:43.345Z,46.40
2019-05-21T00:28:43.333Z,50.20
2019-05-21T00:29:43.329Z,47.00
2019-05-21T00:30:43.328Z,54.70
2019-05-21T00:31:43.321Z,50.70
2019-05-21T00:32:43.312Z,46.80
2019-05-21T00:33:43.310Z,43.00
2019-05-21T00:34:44.369Z,44.90
2019-05-21T00:35:43.297Z,40.70
2019-05-21T00:36:43.296Z,47.70
2019-05-21T00:37:43.291Z,46.70
2019-05-21T00:38:43.288Z,43.00
2019-05-21T00:39:43.278Z,44.60
2019-05-21T00:40:43.271Z,41.20
2019-05-21T00:41:43.271Z,46.40
2019-05-21T00:42:43.257Z,43.00
2019-05-21T00:43:43.253Z,46.30
2019-05-21T00:44:43.249Z,47.80
2019-05-21T00:45:43.290Z,46.90
2019-05-21T00:46:43.234Z,45.50
2019-05-21T00:47:43.229Z,51.50
2019-05-21T00:48:43.236Z,49.40
2019-05-21T00:49:43.224Z,52.50
2019-05-21T00:50:43.219Z,56.50
2019-05-21T00:51:43.213Z,53.30
2019-05-21T00:52:43.205Z,55.70
2019-05-21T00:53:43.199Z,54.30
2019-05-21T00:54:43.199Z,53.50
2019-05-21T00:55:43.186Z,50.70
2019-05-21T00:56:43.221Z,53.60
2019-05-21T00:57:43.179Z,51.50
2019-05-21T00:58:43.172Z,50.00
2019-05-21T00:59:43.169Z,51.70
2019-05-21T01:00:43.162Z,46.90
2019-05-21T01:01:43.156Z,47.50
2019-05-21T01:02:43.150Z,56.90
2019-05-21T01:03:43.541Z,46.00
2019-05-21T01:04:43.134Z,49.70
2019-05-21T01:05:43.129Z,52.00
2019-05-21T01:06:43.125Z,48.30
2019-05-21T01:07:43.127Z,42.50
2019-05-21T01:08:43.119Z,45.10
2019-05-21T01:09:43.138Z,44.60
2019-05-21T01:10:43.105Z,46.00
2019-05-21T01:11:43.101Z,43.00
2019-05-21T01:12:43.087Z,51.90
2019-05-21T01:13:43.085Z,49.50
2019-05-21T01:14:43.083Z,50.70
2019-05-21T01:15:43.073Z,51.40
2019-05-21T01:16:43.075Z,46.00
2019-05-21T01:17:43.066Z,47.30
2019-05-21T01:18:43.058Z,48.50
2019-05-21T01:19:43.052Z,44.40
2019-05-21T01:20:43.051Z,53.20
2019-05-21T01:21:43.046Z,50.20
2019-05-21T01:22:43.036Z,43.20
2019-05-21T01:23:43.028Z,46.70
2019-05-21T01:24:43.019Z,45.10
2019-05-21T01:25:43.013Z,46.20
2019-05-21T01:26:43.009Z,46.70
2019-05-21T01:27:43.001Z,45.90
2019-05-21T01:28:43.003Z,45.50
2019-05-21T01:29:42.996Z,46.00
2019-05-21T01:30:42.994Z,47.50
2019-05-21T01:31:42.986Z,47.60
2019-05-21T01:32:42.977Z,41.80
2019-05-21T01:33:42.971Z,48.30
2019-05-21T01:34:42.973Z,44.10
2019-05-21T01:35:42.962Z,45.60
2019-05-21T01:36:42.952Z,52.70
2019-05-21T01:37:42.946Z,49.20
2019-05-21T01:38:42.939Z,54.10
2019-05-21T01:39:42.936Z,47.50
2019-05-21T01:40:42.931Z,43.60
2019-05-21T01:41:42.925Z,48.00
2019-05-21T01:42:42.920Z,43.60
2019-05-21T01:43:42.912Z,56.00
2019-05-21T01:44:42.904Z,46.70
2019-05-21T01:45:42.898Z,49.70
2019-05-21T01:46:42.895Z,42.70
2019-05-21T01:47:42.888Z,44.60
2019-05-21T01:48:42.897Z,52.80
2019-05-21T01:49:42.881Z,48.10
2019-05-21T01:50:42.872Z,45.30
2019-05-21T01:51:42.864Z,53.40
2019-05-21T01:52:42.865Z,43.60
2019-05-21T01:53:42.860Z,44.10
2019-05-21T01:54:42.851Z,41.90
2019-05-21T01:55:42.849Z,41.40
2019-05-21T01:56:42.831Z,44.40
2019-05-21T01:57:42.828Z,44.30
2019-05-21T01:58:42.821Z,38.20
2019-05-21T01:59:42.816Z,38.10
2019-05-21T02:00:42.814Z,42.20
2019-05-21T02:01:42.808Z,47.50
2019-05-21T02:02:42.804Z,43.70
2019-05-21T02:03:42.799Z,40.10
2019-05-21T02:04:42.789Z,47.20
2019-05-21T02:05:42.783Z,41.40
2019-05-21T02:06:42.780Z,45.80
2019-05-21T02:07:42.774Z,40.60
2019-05-21T02:08:42.841Z,40.90
2019-05-21T02:09:42.763Z,38.50
2019-05-21T02:10:42.752Z,39.50
2019-05-21T02:11:42.745Z,39.70
2019-05-21T02:12:42.743Z,43.20
2019-05-21T02:13:42.737Z,39.30
2019-05-21T02:14:42.732Z,43.10
2019-05-21T02:15:42.727Z,42.00
2019-05-21T02:16:42.717Z,40.40
2019-05-21T02:17:42.711Z,51.20
2019-05-21T02:18:42.704Z,47.10
2019-05-21T02:19:42.697Z,48.80
2019-05-21T02:20:42.696Z,47.10
2019-05-21T02:21:42.688Z,45.50
2019-05-21T02:22:42.679Z,44.10
2019-05-21T02:23:42.673Z,43.20
2019-05-21T02:24:42.672Z,44.50
2019-05-21T02:25:42.666Z,46.50
2019-05-21T02:26:42.663Z,46.70
2019-05-21T02:27:42.654Z,50.10
2019-05-21T02:28:42.650Z,51.70
2019-05-21T02:29:42.640Z,51.60
2019-05-21T02:30:42.636Z,46.80
2019-05-21T02:31:42.631Z,47.00
2019-05-21T02:32:42.629Z,47.60
2019-05-21T02:33:42.621Z,51.40
2019-05-21T02:34:42.616Z,51.30
2019-05-21T02:35:53.477Z,51.60
2019-05-21T02:36:42.597Z,49.80
2019-05-21T02:37:42.591Z,43.40
2019-05-21T02:38:42.592Z,46.80
2019-05-21T02:39:42.585Z,46.10
2019-05-21T02:40:42.575Z,46.10
2019-05-21T02:41:42.571Z,60.70
2019-05-21T02:42:42.565Z,49.90
2019-05-21T02:43:42.566Z,47.30
2019-05-21T02:44:42.557Z,44.70
2019-05-21T02:45:42.555Z,51.00
2019-05-21T02:46:42.548Z,45.50
2019-05-21T02:47:42.555Z,50.70
2019-05-21T02:48:42.530Z,51.90
2019-05-21T02:49:42.538Z,50.10
2019-05-21T02:50:42.518Z,52.40
2019-05-21T02:51:42.510Z,51.60
2019-05-21T02:52:42.510Z,47.50
2019-05-21T02:53:42.504Z,50.80
2019-05-21T02:54:42.539Z,53.10
2019-05-21T02:55:42.484Z,45.60
2019-05-21T02:56:42.483Z,42.60
2019-05-21T02:57:42.485Z,47.20
2019-05-21T02:58:42.488Z,47.10
2019-05-21T02:59:42.468Z,46.50
2019-05-21T03:00:42.465Z,47.30
2019-05-21T03:01:42.457Z,47.50
2019-05-21T03:02:42.447Z,57.20
2019-05-21T03:03:42.441Z,46.20
2019-05-21T03:04:42.439Z,43.60
2019-05-21T03:05:42.433Z,44.80
2019-05-21T03:06:42.427Z,50.30
2019-05-21T03:07:42.419Z,56.00
2019-05-21T03:08:42.409Z,53.30
2019-05-21T03:09:42.402Z,44.20
2019-05-21T03:10:42.401Z,54.00
2019-05-21T03:11:42.395Z,48.00
2019-05-21T03:12:42.384Z,56.50
2019-05-21T03:13:42.378Z,46.70
2019-05-21T03:14:42.387Z,48.10
2019-05-21T03:15:42.368Z,45.10
2019-05-21T03:16:42.383Z,45.60
2019-05-21T03:17:42.365Z,49.80
2019-05-21T03:18:42.353Z,57.70
2019-05-21T03:19:42.347Z,57.30
2019-05-21T03:20:42.337Z,56.20
2019-05-21T03:21:42.331Z,67.00
2019-05-21T03:22:42.331Z,62.20
2019-05-21T03:23:42.321Z,59.10
2019-05-21T03:24:42.319Z,64.70
2019-05-21T03:25:42.315Z,62.30
2019-05-21T03:26:42.304Z,55.70
2019-05-21T03:27:42.301Z,61.30
2019-05-21T03:28:42.294Z,58.90
2019-05-21T03:29:42.292Z,67.50
2019-05-21T03:30:42.296Z,59.30
2019-05-21T03:31:42.276Z,57.00
2019-05-21T03:32:42.290Z,57.10
2019-05-21T03:33:42.260Z,63.00
2019-05-21T03:34:42.261Z,60.90
2019-05-21T03:35:42.247Z,65.30
2019-05-21T03:36:42.246Z,58.70
2019-05-21T03:37:42.238Z,56.90
2019-05-21T03:38:42.237Z,70.80
2019-05-21T03:39:42.292Z,65.70
2019-05-21T03:40:42.219Z,68.30
2019-05-21T03:41:42.217Z,70.50
2019-05-21T03:42:42.214Z,70.30
2019-05-21T03:43:42.211Z,65.30
2019-05-21T03:44:58.280Z,64.50
2019-05-21T03:45:42.191Z,66.60
2019-05-21T03:46:42.182Z,62.80
2019-05-21T03:47:42.176Z,73.00
2019-05-21T03:48:42.193Z,66.70
2019-05-21T03:49:42.169Z,61.60
2019-05-21T03:50:42.165Z,62.20
2019-05-21T03:51:42.158Z,62.80
2019-05-21T03:52:42.152Z,62.80
2019-05-21T03:53:42.139Z,60.10
2019-05-21T03:54:42.142Z,67.10
2019-05-21T03:55:42.134Z,75.90
2019-05-21T03:56:42.127Z,93.80
2019-05-21T03:57:42.122Z,81.60
2019-05-21T03:58:42.117Z,83.30
2019-05-21T03:59:42.104Z,95.40
2019-05-21T04:00:42.106Z,87.40
2019-05-21T04:01:42.098Z,100.10
2019-05-21T04:02:42.089Z,110.40
2019-05-21T04:03:42.087Z,103.70
2019-05-21T04:04:42.074Z,130.30
2019-05-21T04:05:42.067Z,104.40
2019-05-21T04:06:51.665Z,129.70
2019-05-21T04:07:42.057Z,112.80
2019-05-21T04:08:42.064Z,118.80
2019-05-21T04:09:42.058Z,102.70
2019-05-21T04:10:42.045Z,102.40
2019-05-21T04:11:42.036Z,116.60
2019-05-21T04:12:42.037Z,122.60
2019-05-21T04:13:42.022Z,126.90
2019-05-21T04:14:42.018Z,118.80
2019-05-21T04:15:42.026Z,120.40
2019-05-21T04:16:42.004Z,152.30
2019-05-21T04:17:42.007Z,134.90
2019-05-21T04:18:41.989Z,146.40
2019-05-21T04:19:41.986Z,111.70
2019-05-21T04:20:42.001Z,140.60
2019-05-21T04:21:41.975Z,140.00
2019-05-21T04:22:41.973Z,156.10
2019-05-21T04:23:41.966Z,139.40
2019-05-21T04:24:41.958Z,138.50
2019-05-21T04:25:41.952Z,168.60
2019-05-21T04:26:41.943Z,138.70
2019-05-21T04:27:41.936Z,141.80
2019-05-21T04:28:41.954Z,182.30
2019-05-21T04:29:41.932Z,160.80
2019-05-21T04:30:41.920Z,148.20
2019-05-21T04:31:41.910Z,162.90
2019-05-21T04:32:41.919Z,163.10
2019-05-21T04:33:41.905Z,144.70
2019-05-21T04:34:41.900Z,142.80
2019-05-21T04:35:41.894Z,145.50
2019-05-21T04:36:41.885Z,142.60
2019-05-21T04:37:41.880Z,151.20
2019-05-21T04:38:41.878Z,146.50
2019-05-21T04:39:41.875Z,134.90
2019-05-21T04:40:41.866Z,142.10
2019-05-21T04:41:41.861Z,165.60
2019-05-21T04:42:41.854Z,141.10
2019-05-21T04:43:41.846Z,149.00
2019-05-21T04:44:41.839Z,132.90
2019-05-21T04:45:41.830Z,144.50
2019-05-21T04:46:41.828Z,129.10
2019-05-21T04:47:41.824Z,154.80
2019-05-21T04:48:41.813Z,135.90
2019-05-21T04:49:41.807Z,126.50
2019-05-21T04:50:41.807Z,132.30
2019-05-21T04:51:41.797Z,147.10
2019-05-21T04:52:41.796Z,147.70
2019-05-21T04:53:41.789Z,163.60
2019-05-21T04:54:41.785Z,137.50
2019-05-21T04:55:41.786Z,165.80
2019-05-21T04:56:41.767Z,143.80
2019-05-21T04:57:41.763Z,142.80
2019-05-21T04:58:41.753Z,127.00
2019-05-21T04:59:41.747Z,138.00
2019-05-21T05:00:41.759Z,119.10
2019-05-21T05:01:41.741Z,125.70
2019-05-21T05:02:41.732Z,120.00
2019-05-21T05:03:41.725Z,125.50
2019-05-21T05:04:41.724Z,109.70
2019-05-21T05:05:41.719Z,111.40
2019-05-21T05:06:41.714Z,126.30
2019-05-21T05:07:41.719Z,116.10
2019-05-21T05:08:41.698Z,108.00
2019-05-21T05:09:41.693Z,116.80
2019-05-21T05:10:41.689Z,107.50
2019-05-21T05:11:41.682Z,117.60
2019-05-21T05:12:41.681Z,109.70
2019-05-21T05:13:41.674Z,112.10
2019-05-21T05:14:41.666Z,109.20
2019-05-21T05:15:41.661Z,106.60
2019-05-21T05:16:41.648Z,108.00
2019-05-21T05:17:41.651Z,93.90
2019-05-21T05:18:41.645Z,111.60
2019-05-21T05:19:41.638Z,100.20
2019-05-21T05:20:41.628Z,97.20
2019-05-21T05:21:41.621Z,95.80
2019-05-21T05:22:41.639Z,94.00
2019-05-21T05:23:41.613Z,102.80
2019-05-21T05:24:41.610Z,93.90
2019-05-21T05:25:41.606Z,96.80
2019-05-21T05:26:41.602Z,93.60
2019-05-21T05:27:41.590Z,98.90
2019-05-21T05:28:41.581Z,94.20
2019-05-21T05:29:41.578Z,92.60
2019-05-21T05:30:41.575Z,93.20
2019-05-21T05:31:41.570Z,88.60
2019-05-21T05:32:41.564Z,92.30
2019-05-21T05:33:41.559Z,104.50
2019-05-21T05:34:41.549Z,105.80
2019-05-21T05:35:41.543Z,89.90
2019-05-21T05:36:41.542Z,88.30
2019-05-21T05:37:45.160Z,89.60
2019-05-21T05:38:41.531Z,90.70
2019-05-21T05:39:41.520Z,85.30
2019-05-21T05:40:41.510Z,92.20
2019-05-21T05:41:41.507Z,87.20
2019-05-21T05:42:41.507Z,86.80
2019-05-21T05:43:41.496Z,87.80
2019-05-21T05:44:41.494Z,81.20
2019-05-21T05:45:41.489Z,82.30
2019-05-21T05:46:41.483Z,82.90
2019-05-21T05:47:41.477Z,84.60
2019-05-21T05:48:41.469Z,87.30
2019-05-21T05:49:41.462Z,80.10
2019-05-21T05:50:41.464Z,78.30
2019-05-21T05:51:41.459Z,85.00
2019-05-21T05:52:41.446Z,86.40
2019-05-21T05:53:41.439Z,88.80
2019-05-21T05:54:41.430Z,87.50
2019-05-21T05:55:41.425Z,88.70
2019-05-21T05:56:41.447Z,83.20
2019-05-21T05:57:41.449Z,79.30
2019-05-21T05:58:41.412Z,88.50
2019-05-21T05:59:41.406Z,85.90
2019-05-21T06:00:41.394Z,97.70
2019-05-21T06:01:41.392Z,89.70
2019-05-21T06:02:41.387Z,83.90
2019-05-21T06:03:41.380Z,89.90
2019-05-21T06:04:41.379Z,89.10
2019-05-21T06:05:41.374Z,92.30
2019-05-21T06:06:41.424Z,87.00
2019-05-21T06:07:41.360Z,86.50
2019-05-21T06:08:41.355Z,86.70
2019-05-21T06:09:41.352Z,92.00
2019-05-21T06:10:41.344Z,85.20
2019-05-21T06:11:41.338Z,77.10
2019-05-21T06:12:41.369Z,78.40
2019-05-21T06:13:41.322Z,82.20
2019-05-21T06:14:41.320Z,75.20
2019-05-21T06:15:41.311Z,69.80
2019-05-21T06:16:41.308Z,76.30
2019-05-21T06:17:41.307Z,72.20
2019-05-21T06:18:41.300Z,71.10
2019-05-21T06:19:41.293Z,67.90
2019-05-21T06:20:41.289Z,66.10
2019-05-21T06:21:41.280Z,62.80
2019-05-21T06:22:41.278Z,61.20
2019-05-21T06:23:41.269Z,61.90
2019-05-21T06:24:41.262Z,70.30
2019-05-21T06:25:41.255Z,60.20
2019-05-21T06:26:41.246Z,61.80
2019-05-21T06:27:41.241Z,63.90
2019-05-21T06:28:41.240Z,56.90
2019-05-21T06:29:41.236Z,55.00
2019-05-21T06:30:41.229Z,56.50
2019-05-21T06:31:41.230Z,55.50
2019-05-21T06:32:41.216Z,52.50
2019-05-21T06:33:41.208Z,51.50
2019-05-21T06:34:41.209Z,47.60
2019-05-21T06:35:41.201Z,47.50
2019-05-21T06:36:41.196Z,51.90
2019-05-21T06:37:41.194Z,52.10
2019-05-21T06:38:41.184Z,52.30
2019-05-21T06:39:41.177Z,49.40
2019-05-21T06:40:41.177Z,48.20
2019-05-21T06:41:41.169Z,51.20
2019-05-21T06:42:41.165Z,50.10
2019-05-21T06:43:41.159Z,51.00
2019-05-21T06:44:41.147Z,48.20
2019-05-21T06:45:41.143Z,59.70
2019-05-21T06:46:41.137Z,60.20
2019-05-21T06:47:41.131Z,58.90
2019-05-21T06:48:41.146Z,62.10
2019-05-21T06:49:41.127Z,60.40
2019-05-21T06:50:41.122Z,61.20
2019-05-21T06:51:41.116Z,64.90
2019-05-21T06:52:41.147Z,60.50
2019-05-21T06:53:41.102Z,62.20
2019-05-21T06:54:41.099Z,53.20
2019-05-21T06:55:41.097Z,46.30
2019-05-21T06:56:41.086Z,48.10
2019-05-21T06:57:41.092Z,38.00
2019-05-21T06:58:41.073Z,39.80
2019-05-21T06:59:41.065Z,41.90
2019-05-21T07:00:41.069Z,43.00
2019-05-21T07:01:41.097Z,45.80
2019-05-21T07:02:41.054Z,47.90
2019-05-21T07:03:41.052Z,50.60
2019-05-21T07:04:41.039Z,57.70
2019-05-21T07:05:57.628Z,65.10
2019-05-21T07:06:42.935Z,64.10
2019-05-21T07:07:41.028Z,61.50
2019-05-21T07:08:41.027Z,65.10
2019-05-21T07:09:41.024Z,69.30
2019-05-21T07:10:41.012Z,68.60
2019-05-21T07:11:41.005Z,74.70
2019-05-21T07:12:41.003Z,72.00
2019-05-21T07:13:40.996Z,69.50
2019-05-21T07:14:40.990Z,67.00
2019-05-21T07:15:40.984Z,65.10
2019-05-21T07:16:40.977Z,63.20
2019-05-21T07:17:40.970Z,58.70
2019-05-21T07:18:41.623Z,57.80
2019-05-21T07:19:40.957Z,56.40
2019-05-21T07:20:40.960Z,61.70
2019-05-21T07:21:40.954Z,56.60
2019-05-21T07:22:40.993Z,55.20
2019-05-21T07:23:40.944Z,61.50
2019-05-21T07:24:40.934Z,55.40
2019-05-21T07:25:40.930Z,56.50
2019-05-21T07:26:40.928Z,57.90
2019-05-21T07:27:40.922Z,54.80
2019-05-21T07:28:40.916Z,56.50
2019-05-21T07:29:40.907Z,59.10
2019-05-21T07:30:40.900Z,53.80
2019-05-21T07:31:40.894Z,56.80
2019-05-21T07:32:40.922Z,57.30
2019-05-21T07:33:40.889Z,57.20
2019-05-21T07:34:40.889Z,55.80
2019-05-21T07:35:40.879Z,61.80
2019-05-21T07:36:40.873Z,57.70
2019-05-21T07:37:40.866Z,58.10
2019-05-21T07:38:52.883Z,58.10
2019-05-21T07:39:40.851Z,66.60
2019-05-21T07:40:40.850Z,67.10
2019-05-21T07:41:40.844Z,62.00
2019-05-21T07:42:40.837Z,64.60
2019-05-21T07:43:40.833Z,62.90
2019-05-21T07:44:40.830Z,57.20
2019-05-21T07:45:40.825Z,60.50
2019-05-21T07:46:40.824Z,62.60
2019-05-21T07:47:40.817Z,61.20
2019-05-21T07:48:40.808Z,58.60
2019-05-21T07:49:40.803Z,60.60
2019-05-21T07:50:40.797Z,62.20
2019-05-21T07:51:40.790Z,66.20
2019-05-21T07:52:40.790Z,61.90
2019-05-21T07:53:40.785Z,57.00
2019-05-21T07:54:40.776Z,63.80
2019-05-21T07:55:40.771Z,60.70
2019-05-21T07:56:40.765Z,61.60
2019-05-21T07:57:40.759Z,64.10
2019-05-21T07:58:40.754Z,61.90
2019-05-21T07:59:40.750Z,71.60
2019-05-21T08:00:40.739Z,70.50
2019-05-21T08:01:40.736Z,74.00
2019-05-21T08:02:40.831Z,74.90
2019-05-21T08:03:40.727Z,68.80
2019-05-21T08:04:40.728Z,66.50
2019-05-21T08:05:40.721Z,65.20
2019-05-21T08:06:40.718Z,68.20
2019-05-21T08:07:40.712Z,61.80
2019-05-21T08:08:40.702Z,72.00
2019-05-21T08:09:40.699Z,67.20
2019-05-21T08:10:40.726Z,65.70
2019-05-21T08:11:40.682Z,67.60
2019-05-21T08:12:40.685Z,69.60
2019-05-21T08:13:40.680Z,70.70
2019-05-21T08:14:40.668Z,62.00
2019-05-21T08:15:40.662Z,61.60
2019-05-21T08:16:40.660Z,60.80
2019-05-21T08:17:40.658Z,63.50
2019-05-21T08:18:40.655Z,65.90
2019-05-21T08:19:40.652Z,67.10
2019-05-21T08:20:40.642Z,71.20
2019-05-21T08:21:40.635Z,66.10
2019-05-21T08:22:40.638Z,69.30
2019-05-21T08:23:40.632Z,65.20
2019-05-21T08:24:40.621Z,68.50
2019-05-21T08:25:40.683Z,64.80
2019-05-21T08:26:40.610Z,60.50
2019-05-21T08:27:40.645Z,64.20
2019-05-21T08:28:40.598Z,63.60
2019-05-21T08:29:40.589Z,65.20
2019-05-21T08:30:40.589Z,70.40
2019-05-21T08:31:40.583Z,70.70
2019-05-21T08:32:40.577Z,61.00
2019-05-21T08:33:40.571Z,63.50
2019-05-21T08:34:40.565Z,66.20
2019-05-21T08:35:40.570Z,64.80
2019-05-21T08:36:40.559Z,66.10
2019-05-21T08:37:40.553Z,70.70
2019-05-21T08:38:40.550Z,67.00
2019-05-21T08:39:40.541Z,72.20
2019-05-21T08:40:40.531Z,65.90
2019-05-21T08:41:40.526Z,70.50
2019-05-21T08:42:40.529Z,68.20
2019-05-21T08:43:40.516Z,72.20
2019-05-21T08:44:40.525Z,74.20
2019-05-21T08:45:40.511Z,67.30
2019-05-21T08:46:40.502Z,74.80
2019-05-21T08:47:40.495Z,75.00
2019-05-21T08:48:40.493Z,69.40
2019-05-21T08:49:44.073Z,64.30
2019-05-21T08:50:40.486Z,69.00
2019-05-21T08:51:40.474Z,69.90
2019-05-21T08:52:40.465Z,65.80
2019-05-21T08:53:40.462Z,75.60
2019-05-21T08:54:40.456Z,62.50
2019-05-21T08:55:40.448Z,68.40
2019-05-21T08:56:40.449Z,63.80
2019-05-21T08:57:40.444Z,67.90
2019-05-21T08:58:40.440Z,67.40
2019-05-21T08:59:40.435Z,66.20
2019-05-21T09:00:40.424Z,68.50
2019-05-21T09:01:40.421Z,64.10
2019-05-21T09:02:40.418Z,70.70
2019-05-21T09:03:40.412Z,62.90
2019-05-21T09:04:46.300Z,61.90
2019-05-21T09:05:40.396Z,69.30
2019-05-21T09:06:40.390Z,68.40
2019-05-21T09:07:40.384Z,63.10
2019-05-21T09:08:40.383Z,66.70
2019-05-21T09:09:50.200Z,53.70
2019-05-21T09:10:40.372Z,68.10
2019-05-21T09:11:40.370Z,76.90
2019-05-21T09:12:40.356Z,60.20
2019-05-21T09:13:40.393Z,63.40
2019-05-21T09:14:40.349Z,51.60
2019-05-21T09:15:40.368Z,52.30
2019-05-21T09:16:40.346Z,47.80
2019-05-21T09:17:40.338Z,49.90
2019-05-21T09:18:40.329Z,54.90
2019-05-21T09:19:40.328Z,53.40
2019-05-21T09:20:40.325Z,56.00
2019-05-21T09:21:40.315Z,51.50
2019-05-21T09:22:40.309Z,57.80
2019-05-21T09:23:40.304Z,48.20
2019-05-21T09:24:40.294Z,54.20
2019-05-21T09:25:40.290Z,52.50
2019-05-21T09:26:40.284Z,53.30
2019-05-21T09:27:40.276Z,53.80
2019-05-21T09:28:40.276Z,49.60
2019-05-21T09:29:40.275Z,46.40
2019-05-21T09:30:40.274Z,44.20
2019-05-21T09:31:40.262Z,46.20
2019-05-21T09:32:40.288Z,40.60
2019-05-21T09:33:40.249Z,38.20
2019-05-21T09:34:48.874Z,42.50
2019-05-21T09:35:40.276Z,40.00
2019-05-21T09:36:40.234Z,43.50
2019-05-21T09:37:40.232Z,41.70
2019-05-21T09:38:40.222Z,42.40
2019-05-21T09:39:40.214Z,40.30
2019-05-21T09:40:40.218Z,42.20
2019-05-21T09:41:40.210Z,36.40
2019-05-21T09:42:40.205Z,43.20
2019-05-21T09:43:40.199Z,42.90
2019-05-21T09:44:40.190Z,44.90
2019-05-21T09:45:40.187Z,43.70
2019-05-21T09:46:40.178Z,40.40
2019-05-21T09:47:40.195Z,37.60
2019-05-21T09:48:40.173Z,40.90
2019-05-21T09:49:40.165Z,45.40
2019-05-21T09:50:40.173Z,41.50
2019-05-21T09:51:40.155Z,44.10
2019-05-21T09:52:40.150Z,46.60
2019-05-21T09:53:40.144Z,43.90
2019-05-21T09:54:40.142Z,38.30
2019-05-21T09:55:40.134Z,38.60
2019-05-21T09:56:40.127Z,40.90
2019-05-21T09:57:40.123Z,36.60
2019-05-21T09:58:40.119Z,37.50
2019-05-21T09:59:40.111Z,35.90
2019-05-21T10:00:40.111Z,37.20
2019-05-21T10:01:40.106Z,39.50
2019-05-21T10:02:40.104Z,34.80
2019-05-21T10:03:40.094Z,33.90
2019-05-21T10:04:40.086Z,32.20
2019-05-21T10:05:40.097Z,31.60
2019-05-21T10:06:40.085Z,34.80
2019-05-21T10:07:40.777Z,29.50
2019-05-21T10:08:40.064Z,33.90
2019-05-21T10:09:40.061Z,33.40
2019-05-21T10:10:40.056Z,37.60
2019-05-21T10:11:40.049Z,31.60
2019-05-21T10:12:40.049Z,31.40
2019-05-21T10:13:40.072Z,32.90
2019-05-21T10:14:40.045Z,30.40
2019-05-21T10:15:40.038Z,31.60
2019-05-21T10:16:40.028Z,34.20
2019-05-21T10:17:40.019Z,35.00
2019-05-21T10:18:40.011Z,38.80
2019-05-21T10:19:40.004Z,33.90
2019-05-21T10:20:40.008Z,31.70
2019-05-21T10:21:40.006Z,34.20
2019-05-21T10:22:39.993Z,30.80
2019-05-21T10:23:39.998Z,30.60
2019-05-21T10:24:39.985Z,32.00
2019-05-21T10:25:40.021Z,33.40
2019-05-21T10:26:39.978Z,31.10
2019-05-21T10:27:39.982Z,32.10
2019-05-21T10:28:39.990Z,31.70
2019-05-21T10:29:39.959Z,34.70
2019-05-21T10:30:39.960Z,36.50
2019-05-21T10:31:39.963Z,38.00
2019-05-21T10:32:39.946Z,34.00
2019-05-21T10:33:39.941Z,35.90
2019-05-21T10:34:39.934Z,35.90
2019-05-21T10:35:39.928Z,34.60
2019-05-21T10:36:39.932Z,34.30
2019-05-21T10:37:54.056Z,38.40
2019-05-21T10:38:39.915Z,37.20
2019-05-21T10:39:39.910Z,33.80
2019-05-21T10:40:39.919Z,32.90
2019-05-21T10:41:39.897Z,30.80
2019-05-21T10:42:39.892Z,36.50
2019-05-21T10:43:39.886Z,33.60
2019-05-21T10:44:39.887Z,33.80
2019-05-21T10:45:39.881Z,32.50
2019-05-21T10:46:39.879Z,34.10
2019-05-21T10:47:39.864Z,34.20
2019-05-21T10:48:39.866Z,32.10
2019-05-21T10:49:39.862Z,33.50
2019-05-21T10:50:39.857Z,34.80
2019-05-21T10:51:39.850Z,36.60
2019-05-21T10:52:39.843Z,35.70
2019-05-21T10:53:39.837Z,38.30
2019-05-21T10:54:39.837Z,40.60
2019-05-21T10:55:39.834Z,43.30
2019-05-21T10:56:48.144Z,38.30
2019-05-21T10:57:39.821Z,41.90
2019-05-21T10:58:39.812Z,44.40
2019-05-21T10:59:39.805Z,41.80
2019-05-21T11:00:39.805Z,48.70
2019-05-21T11:01:39.799Z,42.10
2019-05-21T11:02:39.795Z,38.40
2019-05-21T11:03:39.788Z,38.50
2019-05-21T11:04:39.779Z,39.80
2019-05-21T11:05:39.774Z,38.00
2019-05-21T11:06:39.773Z,40.20
2019-05-21T11:07:39.772Z,39.30
2019-05-21T11:08:39.768Z,37.20
2019-05-21T11:09:39.764Z,36.60
2019-05-21T11:10:39.756Z,36.00
2019-05-21T11:11:39.752Z,38.80
2019-05-21T11:12:39.750Z,35.50
2019-05-21T11:13:39.744Z,36.90
2019-05-21T11:14:39.743Z,37.60
2019-05-21T11:15:39.733Z,35.40
2019-05-21T11:16:39.722Z,36.30
2019-05-21T11:17:49.931Z,33.10
2019-05-21T11:18:39.715Z,33.00
2019-05-21T11:19:39.707Z,36.20
2019-05-21T11:20:39.708Z,38.70
2019-05-21T11:21:39.702Z,35.30
2019-05-21T11:22:39.713Z,35.20
2019-05-21T11:23:39.710Z,38.50
2019-05-21T11:24:39.690Z,35.60
2019-05-21T11:25:39.687Z,34.80
2019-05-21T11:26:39.683Z,37.30
2019-05-21T11:27:39.679Z,40.60
2019-05-21T11:28:39.670Z,36.10
2019-05-21T11:29:39.664Z,39.30
2019-05-21T11:30:39.657Z,41.40
2019-05-21T11:31:55.367Z,38.70
2019-05-21T11:32:39.656Z,40.90
2019-05-21T11:33:39.651Z,41.30
2019-05-21T11:34:39.642Z,42.80
2019-05-21T11:35:39.637Z,40.70
2019-05-21T11:36:39.643Z,37.70
2019-05-21T11:37:39.628Z,38.40
2019-05-21T11:38:40.498Z,37.10
2019-05-21T11:39:39.616Z,41.00
2019-05-21T11:40:39.617Z,36.20
2019-05-21T11:41:39.610Z,37.40
2019-05-21T11:42:39.613Z,37.80
2019-05-21T11:43:39.597Z,36.80
2019-05-21T11:44:39.598Z,31.80
2019-05-21T11:45:39.591Z,37.30
2019-05-21T11:46:39.586Z,35.40
2019-05-21T11:47:39.578Z,35.60
2019-05-21T11:48:39.582Z,37.20
2019-05-21T11:49:39.568Z,35.70
2019-05-21T11:50:39.565Z,34.00
2019-05-21T11:51:39.561Z,38.70
2019-05-21T11:52:39.568Z,31.90
2019-05-21T11:53:39.556Z,34.00
2019-05-21T11:54:39.547Z,33.10
2019-05-21T11:55:39.549Z,37.40
2019-05-21T11:56:39.535Z,33.60
2019-05-21T11:57:39.528Z,32.50
2019-05-21T11:58:40.138Z,34.20
2019-05-21T11:59:39.526Z,34.90
2019-05-21T12:00:39.534Z,34.40
2019-05-21T12:01:39.527Z,34.30
2019-05-21T12:02:39.511Z,37.10
2019-05-21T12:03:39.506Z,34.50
2019-05-21T12:04:39.506Z,36.90
2019-05-21T12:05:39.498Z,32.50
2019-05-21T12:06:39.496Z,35.10
2019-05-21T12:07:39.490Z,39.70
2019-05-21T12:08:55.168Z,37.10
2019-05-21T12:09:39.478Z,36.10
2019-05-21T12:10:39.470Z,35.50
2019-05-21T12:11:39.466Z,38.20
2019-05-21T12:12:39.465Z,33.90
2019-05-21T12:13:39.463Z,38.60
2019-05-21T12:14:39.457Z,36.10
2019-05-21T12:15:39.447Z,36.70
2019-05-21T12:16:39.456Z,36.00
2019-05-21T12:17:39.444Z,35.50
2019-05-21T12:18:39.445Z,35.20
2019-05-21T12:19:39.438Z,35.10
2019-05-21T12:20:39.426Z,37.20
2019-05-21T12:21:39.424Z,31.60
2019-05-21T12:22:39.420Z,32.70
2019-05-21T12:23:39.422Z,34.40
2019-05-21T12:24:39.416Z,34.00
2019-05-21T12:25:39.415Z,36.60
2019-05-21T12:26:39.438Z,35.60
2019-05-21T12:27:39.516Z,44.40
2019-05-21T12:28:39.390Z,37.90
2019-05-21T12:29:39.385Z,38.70
2019-05-21T12:30:39.385Z,34.30
2019-05-21T12:31:39.379Z,34.40
2019-05-21T12:32:39.378Z,35.30
2019-05-21T12:33:39.365Z,36.80
2019-05-21T12:34:39.574Z,35.20
2019-05-21T12:35:39.365Z,34.40
2019-05-21T12:36:39.369Z,33.30
2019-05-21T12:37:39.356Z,33.90
2019-05-21T12:38:39.350Z,34.60
2019-05-21T12:39:39.347Z,33.50
2019-05-21T12:40:39.339Z,35.70
2019-05-21T12:41:39.369Z,36.70
2019-05-21T12:42:39.327Z,36.20
2019-05-21T12:43:39.331Z,36.20
2019-05-21T12:44:39.319Z,36.00
2019-05-21T12:45:39.319Z,34.80
2019-05-21T12:46:39.306Z,31.10
2019-05-21T12:47:39.309Z,33.90
2019-05-21T12:48:39.302Z,35.60
2019-05-21T12:49:39.300Z,38.40
2019-05-21T12:50:39.295Z,38.80